MSC Lea — 9HA2639 — position and weather

sailwx.info

Track history (hours):
 
Tides and Currents Weather Stations Pressure Air Temp Water Temp Dewpoint Dewpoint Depression Visibility Wind Speed Wind Dir Waves Ship Positions

MSC Lea

Last reported at 2016-Aug-28 01:33 UTC. Time now 2016-Aug-28 05:14 UTC.
Position N 37°22' E 016°54'.

Length 217 m; draft 11.1 m.

Type: Ship (hazmat cat A). MMSI: 215101000.

Date/timePositionNaut miles runAvg speedWind from/ knotsBaromVisibWave heightAir tempDewpointWater temp
2016-Aug-28 01:33N 37°22' E 016°54'5012.5
2016-Aug-27 21:33N 37°41' E 015°56'1212.0
2016-Aug-27 20:33N 37°48' E 015°43'1212.4
2016-Aug-27 19:33N 37°58' E 015°35'1111.3
2016-Aug-27 18:33N 38°09' E 015°35'1413.6
2016-Aug-27 17:33N 38°21' E 015°44'10 9.9
2016-Aug-27 16:33N 38°27' E 015°54'0 0.2
2016-Aug-27 15:31N 38°27' E 015°54'0 0.0
2016-Aug-27 14:32N 38°27' E 015°54'0 0.0
2016-Aug-27 13:32N 38°27' E 015°54'0 0.0
2016-Aug-27 12:30N 38°27' E 015°54'0 0.0
2016-Aug-27 11:31N 38°27' E 015°54'0 0.0
2016-Aug-27 10:31N 38°27' E 015°54'0 0.0
2016-Aug-27 09:32N 38°27' E 015°54'0 0.0
2016-Aug-27 08:33N 38°27' E 015°54'0 0.0
2016-Aug-27 07:33N 38°27' E 015°54'0 0.0
2016-Aug-27 06:31N 38°27' E 015°54'0 0.0
2016-Aug-27 04:32N 38°27' E 015°54'0 0.0
2016-Aug-27 03:33N 38°27' E 015°54'0 0.0
2016-Aug-27 02:31N 38°27' E 015°54'0 0.0
2016-Aug-27 01:31N 38°27' E 015°54'0 0.0
2016-Aug-27 00:32N 38°27' E 015°54'0 0.0
2016-Aug-26 23:33N 38°27' E 015°54'0 0.0
2016-Aug-26 22:30N 38°27' E 015°54'0 0.0
2016-Aug-26 21:31N 38°27' E 015°54'0 0.0
2016-Aug-26 20:32N 38°27' E 015°54'0 0.0
2016-Aug-26 19:32N 38°27' E 015°54'0 0.0
2016-Aug-26 18:33N 38°27' E 015°54'0 0.0
2016-Aug-26 17:28N 38°27' E 015°54'0 0.4
2016-Aug-26 16:33N 38°27' E 015°54'5 4.7
2016-Aug-26 15:33N 38°24' E 015°49'1514.7
2016-Aug-26 14:34N 38°13' E 015°37'1313.2
2016-Aug-26 13:33N 37°60' E 015°35'1212.4
2016-Aug-26 12:33N 37°49' E 015°42'1414.3
2016-Aug-26 11:34N 37°42' E 015°58'1514.7
2016-Aug-26 10:33N 37°38' E 016°16'38512.4
2016-Aug-25 03:30N 37°49' E 024°24'  
2016-Aug-22 16:33N 43°18' E 034°20'1513.6
2016-Aug-22 15:26N 43°25' E 034°38'9813.9
2016-Aug-22 08:21N 44°10' E 036°40'1214.5
2016-Aug-22 07:32N 44°15' E 036°54'2014.4
2016-Aug-22 06:09N 44°24' E 037°20'914.1
2016-Aug-22 05:33N 44°28' E 037°30'1414.4
2016-Aug-22 04:33N 44°36' E 037°47'8 7.8
2016-Aug-22 03:33N 44°44' E 037°47'0 0.2
2016-Aug-22 02:33N 44°44' E 037°47'0 0.0
2016-Aug-22 01:31N 44°44' E 037°47'0 0.0
2016-Aug-22 00:29N 44°44' E 037°47'0 0.0
2016-Aug-21 23:32N 44°44' E 037°47'0 0.0
2016-Aug-21 22:33N 44°44' E 037°47'0 0.0
2016-Aug-21 21:33N 44°44' E 037°47'0 0.0
2016-Aug-21 20:31N 44°44' E 037°47'0 0.0
2016-Aug-21 19:29N 44°44' E 037°47'0 0.0
2016-Aug-21 18:32N 44°44' E 037°47'0 0.0
2016-Aug-21 17:33N 44°44' E 037°47'0 0.0
2016-Aug-21 16:31N 44°44' E 037°47'0 0.0
2016-Aug-21 15:31N 44°44' E 037°47'0 0.0
2016-Aug-21 14:32N 44°44' E 037°47'0 0.0
2016-Aug-21 13:33N 44°44' E 037°47'0 0.0
2016-Aug-21 12:33N 44°44' E 037°47'0 0.0
2016-Aug-21 11:31N 44°44' E 037°47'0 0.0
2016-Aug-21 10:32N 44°44' E 037°47'0 0.0
2016-Aug-21 09:32N 44°44' E 037°47'0 0.0
2016-Aug-21 08:33N 44°44' E 037°47'0 0.0
2016-Aug-21 07:31N 44°44' E 037°47'0 0.0
2016-Aug-21 06:31N 44°44' E 037°47'0 0.0
2016-Aug-21 05:29N 44°44' E 037°47'0 0.0
2016-Aug-21 04:33N 44°44' E 037°47'0 0.0
2016-Aug-21 03:33N 44°44' E 037°47'0 0.0
2016-Aug-21 02:31N 44°44' E 037°47'0 0.0
2016-Aug-21 01:32N 44°44' E 037°47'0 0.0
2016-Aug-21 00:32N 44°44' E 037°47'0 0.0
2016-Aug-20 23:33N 44°44' E 037°47'0 0.0
2016-Aug-20 22:31N 44°44' E 037°47'0 0.0
2016-Aug-20 21:31N 44°44' E 037°47'0 0.4
2016-Aug-20 20:33N 44°44' E 037°47'7 7.0
2016-Aug-20 19:33N 44°37' E 037°52'2 2.4
2016-Aug-20 18:33N 44°35' E 037°52'1414.3
2016-Aug-20 17:33N 44°23' E 037°40'5 5.2
2016-Aug-20 16:33N 44°19' E 037°35'1 0.7
2016-Aug-20 15:33N 44°20' E 037°36'1 0.7
2016-Aug-20 14:33N 44°20' E 037°37'1 0.8
2016-Aug-20 13:33N 44°21' E 037°37'1 0.6
2016-Aug-20 12:33N 44°22' E 037°37'0 0.4
2016-Aug-20 11:33N 44°22' E 037°37'0 0.3
2016-Aug-20 10:33N 44°22' E 037°38'2221.6
2016-Aug-20 09:33N 44°36' E 038°01'23 2.2
2016-Aug-19 23:12N 44°16' E 037°44'1 0.9
2016-Aug-19 22:29N 44°16' E 037°45'2 0.7
2016-Aug-19 19:27N 44°18' E 037°43'1213.1
2016-Aug-19 18:33N 44°13' E 037°28'42313.6
2016-Aug-18 11:30N 40°57' E 028°59'1414.4
2016-Aug-18 10:33N 40°49' E 028°44'4 3.3
2016-Aug-18 09:21N 40°46' E 028°41'1 0.6
2016-Aug-18 08:30N 40°46' E 028°40'  
Track history (hours):
 
Tides and Currents Weather Stations Pressure Air Temp Water Temp Dewpoint Dewpoint Depression Visibility Wind Speed Wind Dir Waves Ship Positions

MSC Lea

Last reported at 2016-Aug-28 01:33 UTC. Time now 2016-Aug-28 05:14 UTC.
Position N 37°22' E 016°54'.

Length 217 m; draft 11.1 m.

Type: Ship (hazmat cat A). MMSI: 215101000.

Date/timePositionNaut miles runAvg speedWind from/ knotsBaromVisibWave heightAir tempDewpointWater temp
2016-Aug-28 01:33N 37°22' E 016°54'5012.5
2016-Aug-27 21:33N 37°41' E 015°56'1212.0
2016-Aug-27 20:33N 37°48' E 015°43'1212.4
2016-Aug-27 19:33N 37°58' E 015°35'1111.3
2016-Aug-27 18:33N 38°09' E 015°35'1413.6
2016-Aug-27 17:33N 38°21' E 015°44'10 9.9
2016-Aug-27 16:33N 38°27' E 015°54'0 0.2
2016-Aug-27 15:31N 38°27' E 015°54'0 0.0
2016-Aug-27 14:32N 38°27' E 015°54'0 0.0
2016-Aug-27 13:32N 38°27' E 015°54'0 0.0
2016-Aug-27 12:30N 38°27' E 015°54'0 0.0
2016-Aug-27 11:31N 38°27' E 015°54'0 0.0
2016-Aug-27 10:31N 38°27' E 015°54'0 0.0
2016-Aug-27 09:32N 38°27' E 015°54'0 0.0
2016-Aug-27 08:33N 38°27' E 015°54'0 0.0
2016-Aug-27 07:33N 38°27' E 015°54'0 0.0
2016-Aug-27 06:31N 38°27' E 015°54'0 0.0
2016-Aug-27 04:32N 38°27' E 015°54'0 0.0
2016-Aug-27 03:33N 38°27' E 015°54'0 0.0
2016-Aug-27 02:31N 38°27' E 015°54'0 0.0
2016-Aug-27 01:31N 38°27' E 015°54'0 0.0
2016-Aug-27 00:32N 38°27' E 015°54'0 0.0
2016-Aug-26 23:33N 38°27' E 015°54'0 0.0
2016-Aug-26 22:30N 38°27' E 015°54'0 0.0
2016-Aug-26 21:31N 38°27' E 015°54'0 0.0
2016-Aug-26 20:32N 38°27' E 015°54'0 0.0
2016-Aug-26 19:32N 38°27' E 015°54'0 0.0
2016-Aug-26 18:33N 38°27' E 015°54'0 0.0
2016-Aug-26 17:28N 38°27' E 015°54'0 0.4
2016-Aug-26 16:33N 38°27' E 015°54'5 4.7
2016-Aug-26 15:33N 38°24' E 015°49'1514.7
2016-Aug-26 14:34N 38°13' E 015°37'1313.2
2016-Aug-26 13:33N 37°60' E 015°35'1212.4
2016-Aug-26 12:33N 37°49' E 015°42'1414.3
2016-Aug-26 11:34N 37°42' E 015°58'1514.7
2016-Aug-26 10:33N 37°38' E 016°16'38512.4
2016-Aug-25 03:30N 37°49' E 024°24'  
2016-Aug-22 16:33N 43°18' E 034°20'1513.6
2016-Aug-22 15:26N 43°25' E 034°38'9813.9
2016-Aug-22 08:21N 44°10' E 036°40'1214.5
2016-Aug-22 07:32N 44°15' E 036°54'2014.4
2016-Aug-22 06:09N 44°24' E 037°20'914.1
2016-Aug-22 05:33N 44°28' E 037°30'1414.4
2016-Aug-22 04:33N 44°36' E 037°47'8 7.8
2016-Aug-22 03:33N 44°44' E 037°47'0 0.2
2016-Aug-22 02:33N 44°44' E 037°47'0 0.0
2016-Aug-22 01:31N 44°44' E 037°47'0 0.0
2016-Aug-22 00:29N 44°44' E 037°47'0 0.0
2016-Aug-21 23:32N 44°44' E 037°47'0 0.0
2016-Aug-21 22:33N 44°44' E 037°47'0 0.0
2016-Aug-21 21:33N 44°44' E 037°47'0 0.0
2016-Aug-21 20:31N 44°44' E 037°47'0 0.0
2016-Aug-21 19:29N 44°44' E 037°47'0 0.0
2016-Aug-21 18:32N 44°44' E 037°47'0 0.0
2016-Aug-21 17:33N 44°44' E 037°47'0 0.0
2016-Aug-21 16:31N 44°44' E 037°47'0 0.0
2016-Aug-21 15:31N 44°44' E 037°47'0 0.0
2016-Aug-21 14:32N 44°44' E 037°47'0 0.0
2016-Aug-21 13:33N 44°44' E 037°47'0 0.0
2016-Aug-21 12:33N 44°44' E 037°47'0 0.0
2016-Aug-21 11:31N 44°44' E 037°47'0 0.0
2016-Aug-21 10:32N 44°44' E 037°47'0 0.0
2016-Aug-21 09:32N 44°44' E 037°47'0 0.0
2016-Aug-21 08:33N 44°44' E 037°47'0 0.0
2016-Aug-21 07:31N 44°44' E 037°47'0 0.0
2016-Aug-21 06:31N 44°44' E 037°47'0 0.0
2016-Aug-21 05:29N 44°44' E 037°47'0 0.0
2016-Aug-21 04:33N 44°44' E 037°47'0 0.0
2016-Aug-21 03:33N 44°44' E 037°47'0 0.0
2016-Aug-21 02:31N 44°44' E 037°47'0 0.0
2016-Aug-21 01:32N 44°44' E 037°47'0 0.0
2016-Aug-21 00:32N 44°44' E 037°47'0 0.0
2016-Aug-20 23:33N 44°44' E 037°47'0 0.0
2016-Aug-20 22:31N 44°44' E 037°47'0 0.0
2016-Aug-20 21:31N 44°44' E 037°47'0 0.4
2016-Aug-20 20:33N 44°44' E 037°47'7 7.0
2016-Aug-20 19:33N 44°37' E 037°52'2 2.4
2016-Aug-20 18:33N 44°35' E 037°52'1414.3
2016-Aug-20 17:33N 44°23' E 037°40'5 5.2
2016-Aug-20 16:33N 44°19' E 037°35'1 0.7
2016-Aug-20 15:33N 44°20' E 037°36'1 0.7
2016-Aug-20 14:33N 44°20' E 037°37'1 0.8
2016-Aug-20 13:33N 44°21' E 037°37'1 0.6
2016-Aug-20 12:33N 44°22' E 037°37'0 0.4
2016-Aug-20 11:33N 44°22' E 037°37'0 0.3
2016-Aug-20 10:33N 44°22' E 037°38'2221.6
2016-Aug-20 09:33N 44°36' E 038°01'23 2.2
2016-Aug-19 23:12N 44°16' E 037°44'1 0.9
2016-Aug-19 22:29N 44°16' E 037°45'2 0.7
2016-Aug-19 19:27N 44°18' E 037°43'1213.1
2016-Aug-19 18:33N 44°13' E 037°28'42313.6
2016-Aug-18 11:30N 40°57' E 028°59'1414.4
2016-Aug-18 10:33N 40°49' E 028°44'4 3.3
2016-Aug-18 09:21N 40°46' E 028°41'1 0.6
2016-Aug-18 08:30N 40°46' E 028°40'  

Dump ship's entire track history